EZY53DE LEPA-EGKK
Flight info
| Callsign | EZY53DE |
|---|---|
| Flight time | N/A |
| Altitude | 36000 |
| Route | DRAGO DCT PAPOS DCT UMURE DCT XIKEN DCT KARES DCT ARBEK DCT REBUL DCT USKAR DCT MOPAS DCT GIROM DCT GONUP DCT MANAK DCT TIRAV DCT DIXAD DCT NTS DCT BAKUL DCT REN DCT UPALO DCT REVTU DCT ODREP UP88 VASUX |
| Aircraft | A20N/M-SDE2E3FGHIRWXY/LB1 |
Departure
| Time | 2026-05-04 10:56 |
|---|---|
| Airport | Palma de Mallorca Airport (LEPA) |
Arrival
| Time | N/A |
|---|---|
| Airport | London Gatwick Airport (EGKK) |
| Time | Latitude | Longitude | Altitude | Speed | Heading |
|---|---|---|---|---|---|
| 2026-05-04 10:37 | 39.55054 | 2.72797 | 26 ft | 0 kts | 147° |
| 2026-05-04 10:47 | 39.55056 | 2.72796 | 26 ft | 2 kts | 147° |
| 2026-05-04 10:47 | 39.55077 | 2.72775 | 29 ft | 4 kts | 136° |
| 2026-05-04 10:47 | 39.55094 | 2.72749 | 29 ft | 4 kts | 113° |
| 2026-05-04 10:49 | 39.55093 | 2.72711 | 30 ft | 0 kts | 58° |
| 2026-05-04 10:51 | 39.55580 | 2.73512 | 22 ft | 12 kts | 314° |
| 2026-05-04 10:52 | 39.55643 | 2.73510 | 25 ft | 13 kts | 40° |
| 2026-05-04 10:52 | 39.55689 | 2.73588 | 22 ft | 10 kts | 58° |
| 2026-05-04 10:52 | 39.55729 | 2.73664 | 22 ft | 16 kts | 55° |
| 2026-05-04 10:54 | 39.56194 | 2.74194 | 20 ft | 9 kts | 245° |
| 2026-05-04 10:54 | 39.56165 | 2.74123 | 20 ft | 0 kts | 238° |
| 2026-05-04 10:56 | 39.53688 | 2.67431 | 2730 ft | 161 kts | 277° |
| 2026-05-04 10:56 | 39.53918 | 2.66052 | 3731 ft | 153 kts | 282° |
| 2026-05-04 10:56 | 39.54264 | 2.64771 | 4639 ft | 148 kts | 286° |
| 2026-05-04 10:57 | 39.54698 | 2.63561 | 5434 ft | 149 kts | 288° |
| 2026-05-04 10:57 | 39.55153 | 2.62281 | 5939 ft | 167 kts | 286° |
| 2026-05-04 10:57 | 39.55641 | 2.60811 | 6371 ft | 185 kts | 286° |
| 2026-05-04 10:57 | 39.56157 | 2.59238 | 6782 ft | 192 kts | 286° |
| 2026-05-04 10:58 | 39.56682 | 2.57634 | 7192 ft | 195 kts | 286° |
| 2026-05-04 10:58 | 39.57223 | 2.56004 | 7605 ft | 198 kts | 287° |
| 2026-05-04 10:58 | 39.57771 | 2.54353 | 8018 ft | 201 kts | 286° |
| 2026-05-04 10:58 | 39.58341 | 2.52678 | 8440 ft | 206 kts | 291° |
| 2026-05-04 10:59 | 39.59219 | 2.51163 | 8920 ft | 215 kts | 304° |
| 2026-05-04 10:59 | 39.60146 | 2.49616 | 9421 ft | 221 kts | 300° |
| 2026-05-04 10:59 | 39.61082 | 2.47953 | 9730 ft | 240 kts | 301° |
| 2026-05-04 10:59 | 39.62083 | 2.46169 | 9674 ft | 252 kts | 301° |
| 2026-05-04 11:00 | 39.63122 | 2.44324 | 9617 ft | 254 kts | 301° |
| 2026-05-04 11:01 | 39.70105 | 2.30504 | 10877 ft | 304 kts | 299° |
| 2026-05-04 11:02 | 39.71266 | 2.28170 | 11282 ft | 310 kts | 299° |
| 2026-05-04 11:02 | 39.72437 | 2.25820 | 11685 ft | 311 kts | 299° |
| 2026-05-04 11:05 | 39.90423 | 1.95670 | 17351 ft | 358 kts | 327° |